Aviation Digital Data Service (ADDS)

Output produced by METARs form (0152 UTC 22 June 2018)
found at http://www.aviationweather.gov/adds/metars/
 
EFMI 220120Z AUTO 12012KT 090V170 9999 OVC008 16/15 Q0991
EFMI 220050Z AUTO 10014KT 070V150 9999 OVC006 15/14 Q0991
EFMI 220020Z AUTO 08010KT 040V130 7000 RA OVC005 15/14 Q0992
EFMI 212350Z AUTO 08011KT 040V130 7000 +RA OVC005 14/14 Q0994
EFMI 212320Z AUTO 07007KT 020V110 6000 +RA BKN007 BKN044 OVC053 14/14 Q0995
EFMI 212250Z AUTO 08007KT 050V130 7000 +RA OVC011 14/13 Q0997
EFMI 212220Z AUTO 10008KT 070V140 9999 OVC013 15/13 Q0997
EFMI 212150Z AUTO 09009KT 050V120 9999 BKN014 15/12 Q0998
EFMI 212120Z AUTO 09009KT 050V110 9999 SCT015 BKN054 OVC100 15/12 Q0998
EFMI 212050Z AUTO 11008KT 070V140 9999 OVC014 15/12 Q0999
EFMI 212020Z AUTO 11008KT 070V150 9999 OVC015 15/12 Q1000
EFMI 211950Z AUTO 12005KT 100V160 9999 OVC016 15/12 Q1000
EFMI 211920Z AUTO 10006KT 060V140 9999 BKN019 OVC040 15/11 Q1001
EFMI 211850Z AUTO 11006KT 090V150 9999 OVC028 15/11 Q1001
EFMI 211820Z AUTO 12006KT 080V150 9999 FEW029 OVC033 15/11 Q1001
EFMI 211750Z AUTO 13006KT 090V160 9999 -SHRA FEW030 OVC044 15/11 Q1002
EFMI 211720Z AUTO 12009KT 080V180 CAVOK 16/09 Q1002
EFMI 211650Z AUTO 15006KT 100V200 CAVOK 17/08 Q1002
EFMI 211620Z AUTO 13007KT 100V180 CAVOK 17/06 Q1002
EFMI 211550Z 13006KT 090V180 9999 -SHRA OVC057 18/07 Q1002
EFMI 211520Z AUTO 13008KT 090V160 9999 -RA OVC059 18/06 Q1002
EFMI 211450Z AUTO 14006KT 100V180 CAVOK 19/06 Q1002
EFMI 211350Z AUTO 14007KT 080V210 CAVOK 19/06 Q1003
EFMI 211320Z AUTO 11007KT 040V150 CAVOK 19/03 Q1003
EFMI 211250Z AUTO 08004KT 030V130 CAVOK 19/03 Q1003
EFMI 211220Z AUTO 10004KT 030V170 CAVOK 19/03 Q1003
EFMI 211150Z AUTO 13006KT 090V180 CAVOK 18/02 Q1003
EFMI 211120Z AUTO 13005KT 090V170 CAVOK 18/03 Q1004
EFMI 211050Z AUTO 12005KT 080V220 CAVOK 18/03 Q1004
EFMI 211020Z AUTO 12006KT 090V170 CAVOK 18/03 Q1004
EFMI 210950Z AUTO 14006KT 060V230 CAVOK 19/04 Q1004
EFMI 210920Z AUTO VRB04KT CAVOK 19/03 Q1004
EFMI 210850Z AUTO VRB04KT CAVOK 18/02 Q1004
EFMI 210820Z AUTO VRB04KT CAVOK 17/01 Q1004
EFMI 210750Z AUTO 12005KT 050V220 CAVOK 18/04 Q1005
EFMI 210720Z AUTO VRB03KT CAVOK 17/03 Q1005
EFMI 210650Z AUTO VRB04KT CAVOK 17/02 Q1005
EFMI 210620Z AUTO VRB03KT CAVOK 17/04 Q1005
EFMI 210550Z AUTO VRB02KT CAVOK 15/04 Q1005
EFMI 210520Z AUTO 25003KT CAVOK 15/04 Q1005
EFMI 210450Z AUTO 21002KT CAVOK 14/05 Q1005
EFMI 210420Z AUTO 24003KT CAVOK 13/05 Q1005
EFMI 210350Z AUTO 23002KT CAVOK 12/06 Q1005
EFMI 210320Z AUTO 25002KT CAVOK 11/07 Q1005
EFMI 210250Z AUTO 00000KT CAVOK 09/05 Q1005
EFMI 210220Z AUTO 00000KT CAVOK 08/05 Q1005
EFMI 210150Z AUTO 28001KT CAVOK 06/05 Q1005
EFMI 210120Z AUTO 28002KT CAVOK 05/05 Q1005
EFMI 210050Z AUTO 27001KT CAVOK 05/04 Q1005
EFMI 210020Z AUTO 00000KT CAVOK 05/04 Q1005
EFMI 202350Z AUTO 00000KT CAVOK 06/04 Q1005
EFMI 202320Z AUTO 00000KT CAVOK 06/04 Q1005
EFMI 202250Z AUTO 00000KT CAVOK 08/04 Q1005
EFMI 202220Z AUTO 28001KT CAVOK 09/05 Q1005
EFMI 202150Z AUTO 25001KT CAVOK 10/04 Q1005
EFMI 202120Z AUTO 25004KT CAVOK 12/04 Q1004
EFMI 202050Z AUTO 26007KT CAVOK 13/04 Q1004
EFMI 202020Z AUTO 25006KT 210V280 CAVOK 14/04 Q1004
EFMI 201950Z AUTO 25009KT CAVOK 16/03 Q1004
EFMI 201920Z 25007KT 220V280 CAVOK 16/04 Q1003
EFMI 201850Z 26008KT 230V290 CAVOK 17/04 Q1003
EFMI 201820Z AUTO 26007KT 230V290 CAVOK 17/03 Q1003
EFMI 201750Z AUTO 26010KT CAVOK 18/03 Q1003
EFMI 201720Z AUTO 27009KT 230V300 CAVOK 18/04 Q1004
EFMI 201650Z AUTO 27013KT 240V310 CAVOK 19/03 Q1004
EFMI 201620Z AUTO 26011KT 220V300 CAVOK 19/04 Q1004
EFMI 201550Z AUTO 26012KT 240V310 CAVOK 19/03 Q1004
EFMI 201520Z AUTO 25014KT 230V310 CAVOK 20/02 Q1004
EFMI 201450Z AUTO 26011KT 230V300 CAVOK 20/04 Q1004
EFMI 201420Z AUTO 27015KT 230V300 CAVOK 20/03 Q1004